createdAt,value
2022-08-25T00:01:27.538Z,0.60
2022-08-25T00:03:59.667Z,0.60
2022-08-25T00:06:26.597Z,0.52
2022-08-25T00:08:53.755Z,0.57
2022-08-25T00:11:25.207Z,0.63
2022-08-25T00:13:56.573Z,0.57
2022-08-25T00:16:24.155Z,0.60
2022-08-25T00:18:54.317Z,0.40
2022-08-25T00:21:22.062Z,0.70
2022-08-25T00:23:49.933Z,0.70
2022-08-25T00:26:17.588Z,0.75
2022-08-25T00:28:45.268Z,0.50
2022-08-25T00:31:18.706Z,0.70
2022-08-25T00:33:49.154Z,0.50
2022-08-25T00:36:19.175Z,0.50
2022-08-25T00:38:48.795Z,0.43
2022-08-25T00:41:20.894Z,0.65
2022-08-25T00:43:52.162Z,0.57
2022-08-25T00:46:25.709Z,0.60
2022-08-25T00:48:59.034Z,0.65
2022-08-25T00:51:56.057Z,0.60
2022-08-25T00:54:28.106Z,0.60
2022-08-25T00:56:56.664Z,0.60
2022-08-25T00:59:25.988Z,0.70
2022-08-25T01:01:54.446Z,0.57
2022-08-25T01:04:22.147Z,0.60
2022-08-25T01:06:49.743Z,0.80
2022-08-25T01:09:17.978Z,0.65
2022-08-25T01:11:46.403Z,0.60
2022-08-25T01:14:17.111Z,0.80
2022-08-25T01:16:51.206Z,0.70
2022-08-25T01:19:21.779Z,0.85
2022-08-25T01:21:50.823Z,0.60
2022-08-25T01:24:37.077Z,0.60
2022-08-25T01:27:07.063Z,0.60
2022-08-25T01:29:34.290Z,0.68
2022-08-25T01:32:04.913Z,0.70
2022-08-25T01:34:41.552Z,0.60
2022-08-25T01:37:13.161Z,0.57
2022-08-25T01:39:41.736Z,0.70
2022-08-25T01:42:11.906Z,0.63
2022-08-25T01:44:41.754Z,0.60
2022-08-25T01:47:08.831Z,0.70
2022-08-25T01:49:36.320Z,0.70
2022-08-25T01:52:24.912Z,0.57
2022-08-25T01:54:52.044Z,0.70
2022-08-25T01:57:22.401Z,0.70
2022-08-25T01:59:49.553Z,0.60
2022-08-25T02:02:18.340Z,0.70
2022-08-25T02:04:45.579Z,0.50
2022-08-25T02:07:12.648Z,0.68
2022-08-25T02:09:40.154Z,0.70
2022-08-25T02:12:09.436Z,0.85
2022-08-25T02:14:37.777Z,0.75
2022-08-25T02:17:05.945Z,0.70
2022-08-25T02:19:33.197Z,0.77
2022-08-25T02:22:00.670Z,0.63
2022-08-25T02:24:27.696Z,0.63
2022-08-25T02:26:55.339Z,0.80
2022-08-25T02:29:22.801Z,0.70
2022-08-25T02:31:49.987Z,0.50
2022-08-25T02:34:17.039Z,0.80
2022-08-25T02:36:44.452Z,0.63
2022-08-25T02:39:12.535Z,0.70
2022-08-25T02:41:40.013Z,0.68
2022-08-25T02:44:12.635Z,0.60
2022-08-25T02:46:39.709Z,0.70
2022-08-25T02:49:09.933Z,0.50
2022-08-25T02:51:37.037Z,0.60
2022-08-25T02:54:09.270Z,0.50
2022-08-25T02:56:36.499Z,0.60
2022-08-25T02:59:03.726Z,0.50
2022-08-25T03:01:32.682Z,0.80
2022-08-25T03:04:00.233Z,0.70
2022-08-25T03:06:28.038Z,0.60
2022-08-25T03:08:55.417Z,0.70
2022-08-25T03:11:22.537Z,0.60
2022-08-25T03:13:51.202Z,0.50
2022-08-25T03:16:18.747Z,0.65
2022-08-25T03:18:45.781Z,0.70
2022-08-25T03:21:13.441Z,0.70
2022-08-25T03:23:46.323Z,0.68
2022-08-25T03:26:32.284Z,0.50
2022-08-25T03:29:00.345Z,0.70
2022-08-25T03:31:27.813Z,0.85
2022-08-25T03:33:55.583Z,0.70
2022-08-25T03:36:22.715Z,0.80
2022-08-25T03:38:49.942Z,0.80
2022-08-25T03:41:18.965Z,0.70
2022-08-25T03:43:46.030Z,0.70
2022-08-25T03:46:27.968Z,0.60
2022-08-25T03:48:55.617Z,0.77
2022-08-25T03:51:32.099Z,0.85
2022-08-25T03:54:00.118Z,0.80
2022-08-25T03:56:27.900Z,0.60
2022-08-25T03:58:55.940Z,0.77
2022-08-25T04:01:24.084Z,0.60
2022-08-25T04:03:51.655Z,0.50
2022-08-25T04:06:19.620Z,1.05
2022-08-25T04:08:46.763Z,0.70
2022-08-25T04:11:18.724Z,0.73
2022-08-25T04:13:46.889Z,0.80
2022-08-25T04:16:20.008Z,0.60
2022-08-25T04:18:48.620Z,0.80
2022-08-25T04:21:16.944Z,0.88
2022-08-25T04:23:45.411Z,0.70
2022-08-25T04:26:19.828Z,0.90
2022-08-25T04:28:47.666Z,0.88
2022-08-25T04:31:16.106Z,0.80
2022-08-25T04:33:43.342Z,1.00
2022-08-25T04:36:13.966Z,0.70
2022-08-25T04:38:42.870Z,0.80
2022-08-25T04:41:13.156Z,0.90
2022-08-25T04:43:41.680Z,0.93
2022-08-25T04:46:23.765Z,1.00
2022-08-25T04:48:52.693Z,0.95
2022-08-25T04:51:25.858Z,0.95
2022-08-25T04:53:53.512Z,0.93
2022-08-25T04:56:25.083Z,1.20
2022-08-25T04:58:53.093Z,0.85
2022-08-25T05:01:23.234Z,0.80
2022-08-25T05:03:59.655Z,0.77
2022-08-25T05:06:27.506Z,0.70
2022-08-25T05:08:56.079Z,0.93
2022-08-25T05:11:24.165Z,0.95
2022-08-25T05:13:55.029Z,0.90
2022-08-25T05:16:24.447Z,0.98
2022-08-25T05:18:52.083Z,0.73
2022-08-25T05:21:24.178Z,0.93
2022-08-25T05:26:21.100Z,0.93
2022-08-25T05:28:50.593Z,1.00
2022-08-25T05:31:18.793Z,0.90
2022-08-25T05:33:46.027Z,0.88
2022-08-25T05:36:14.505Z,0.70
2022-08-25T05:38:41.945Z,1.00
2022-08-25T05:41:13.034Z,1.02
2022-08-25T05:43:41.867Z,0.70
2022-08-25T05:46:09.960Z,0.90
2022-08-25T05:48:38.159Z,0.80
2022-08-25T05:51:07.731Z,0.70
2022-08-25T05:53:36.140Z,0.93
2022-08-25T05:56:03.565Z,0.70
2022-08-25T05:58:31.828Z,0.88
2022-08-25T06:01:23.323Z,1.00
2022-08-25T06:03:53.988Z,0.60
2022-08-25T06:06:24.671Z,0.98
2022-08-25T06:08:51.936Z,0.90
2022-08-25T06:11:22.107Z,1.20
2022-08-25T06:13:50.032Z,0.80
2022-08-25T06:16:17.091Z,0.85
2022-08-25T06:18:46.888Z,0.80
2022-08-25T06:21:15.218Z,0.70
2022-08-25T06:23:42.311Z,0.75
2022-08-25T06:26:20.769Z,1.00
2022-08-25T06:28:52.559Z,0.70
2022-08-25T06:31:20.695Z,0.80
2022-08-25T06:33:47.727Z,0.80
2022-08-25T06:36:15.579Z,0.90
2022-08-25T06:38:42.825Z,0.80
2022-08-25T06:41:10.873Z,0.98
2022-08-25T06:43:47.405Z,0.60
2022-08-25T06:46:19.982Z,0.70
2022-08-25T06:48:47.743Z,0.90
2022-08-25T06:51:17.020Z,1.00
2022-08-25T06:53:49.178Z,0.85
2022-08-25T06:56:17.831Z,0.73
2022-08-25T06:58:45.431Z,0.80
2022-08-25T07:01:20.739Z,0.90
2022-08-25T07:03:48.628Z,0.90
2022-08-25T07:06:19.831Z,1.10
2022-08-25T07:08:48.277Z,0.70
2022-08-25T07:11:17.436Z,0.55
2022-08-25T07:13:45.325Z,1.05
2022-08-25T07:16:12.950Z,0.85
2022-08-25T07:18:39.985Z,0.90
2022-08-25T07:21:08.854Z,0.77
2022-08-25T07:23:37.018Z,0.90
2022-08-25T07:26:38.475Z,0.70
2022-08-25T07:29:32.214Z,0.80
2022-08-25T07:32:03.612Z,0.82
2022-08-25T07:34:52.367Z,0.88
2022-08-25T07:37:45.378Z,0.65
2022-08-25T07:40:33.099Z,1.08
2022-08-25T07:43:05.092Z,0.85
2022-08-25T07:45:37.464Z,0.80
2022-08-25T07:48:14.412Z,0.70
2022-08-25T07:50:46.568Z,0.80
2022-08-25T07:53:15.387Z,0.70
2022-08-25T07:55:42.742Z,0.80
2022-08-25T07:58:12.573Z,0.93
2022-08-25T08:00:42.218Z,1.00
2022-08-25T08:03:19.900Z,0.80
2022-08-25T08:05:57.362Z,0.93
2022-08-25T08:08:24.401Z,0.80
2022-08-25T08:11:04.831Z,0.60
2022-08-25T08:13:38.017Z,0.70
2022-08-25T08:16:13.216Z,0.70
2022-08-25T08:18:41.752Z,0.70
2022-08-25T08:21:30.992Z,0.82
2022-08-25T08:23:59.364Z,0.60
2022-08-25T08:26:48.166Z,0.98
2022-08-25T08:29:20.392Z,0.70
2022-08-25T08:31:49.375Z,0.57
2022-08-25T08:34:19.803Z,0.90
2022-08-25T08:36:52.730Z,0.70
2022-08-25T08:39:20.233Z,0.80
2022-08-25T08:42:21.047Z,0.80
2022-08-25T08:45:13.139Z,0.80
2022-08-25T08:47:59.031Z,0.90
2022-08-25T08:50:33.738Z,0.75
2022-08-25T08:53:09.465Z,0.63
2022-08-25T08:55:51.846Z,0.75
2022-08-25T08:58:34.285Z,0.80
2022-08-25T09:01:01.901Z,0.70
2022-08-25T09:03:37.170Z,0.70
2022-08-25T09:06:28.337Z,0.70
2022-08-25T09:08:59.353Z,0.75
2022-08-25T09:12:04.747Z,0.70
2022-08-25T09:14:53.853Z,0.60
2022-08-25T09:17:54.321Z,0.85
2022-08-25T09:20:46.036Z,0.70
2022-08-25T09:23:20.634Z,0.75
2022-08-25T09:25:59.567Z,0.70
2022-08-25T09:28:33.568Z,0.65
2022-08-25T09:31:12.514Z,0.85
2022-08-25T09:33:39.890Z,0.52
2022-08-25T09:36:09.091Z,0.70
2022-08-25T09:38:37.146Z,0.63
2022-08-25T09:41:06.775Z,0.57
2022-08-25T09:43:38.465Z,0.65
2022-08-25T09:48:48.451Z,0.85
2022-08-25T09:51:38.095Z,0.68
2022-08-25T09:54:16.382Z,0.70
2022-08-25T09:56:51.009Z,0.70
2022-08-25T09:59:34.428Z,0.70
2022-08-25T10:02:34.661Z,0.50
2022-08-25T10:05:23.709Z,0.68
2022-08-25T10:07:57.905Z,0.60
2022-08-25T10:10:57.502Z,0.65
2022-08-25T10:13:46.984Z,0.60
2022-08-25T10:16:24.213Z,0.70
2022-08-25T10:19:12.517Z,0.80
2022-08-25T10:21:42.424Z,0.70
2022-08-25T10:24:12.563Z,0.90
2022-08-25T10:27:09.607Z,0.80
2022-08-25T10:29:51.253Z,0.70
2022-08-25T10:32:51.532Z,0.73
2022-08-25T10:35:30.375Z,0.80
2022-08-25T10:38:27.174Z,0.70
2022-08-25T10:41:22.430Z,0.70
2022-08-25T10:44:33.971Z,0.50
2022-08-25T10:47:38.679Z,0.60
2022-08-25T10:50:14.031Z,0.73
2022-08-25T10:53:01.200Z,0.70
2022-08-25T10:55:58.245Z,0.80
2022-08-25T10:58:43.446Z,0.70
2022-08-25T11:01:43.640Z,0.70
2022-08-25T11:04:26.116Z,0.50
2022-08-25T11:07:27.312Z,0.65
2022-08-25T11:09:59.865Z,0.75
2022-08-25T11:12:39.684Z,0.40
2022-08-25T11:15:27.854Z,0.60
2022-08-25T11:18:14.500Z,0.55
2022-08-25T11:21:00.753Z,0.50
2022-08-25T11:23:36.327Z,0.60
2022-08-25T11:26:14.943Z,0.50
2022-08-25T11:28:52.064Z,0.50
2022-08-25T11:31:23.937Z,0.50
2022-08-25T11:33:52.802Z,0.55
2022-08-25T11:36:31.565Z,0.40
2022-08-25T11:39:01.626Z,0.60
2022-08-25T11:41:51.068Z,0.43
2022-08-25T11:44:54.042Z,0.50
2022-08-25T11:47:56.027Z,0.35
2022-08-25T11:50:35.020Z,0.47
2022-08-25T11:53:11.489Z,0.50
2022-08-25T11:55:38.510Z,0.40
2022-08-25T11:58:31.025Z,0.43
2022-08-25T12:03:32.213Z,0.50
2022-08-25T12:06:23.436Z,0.55
2022-08-25T12:08:51.132Z,0.40
2022-08-25T12:11:51.496Z,0.38
2022-08-25T12:14:24.693Z,0.40
2022-08-25T12:16:55.509Z,0.50
2022-08-25T12:19:34.569Z,0.40
2022-08-25T12:22:03.678Z,0.55
2022-08-25T12:24:47.678Z,0.40
2022-08-25T12:27:33.804Z,0.45
2022-08-25T12:30:15.966Z,0.45
2022-08-25T12:33:27.922Z,0.35
2022-08-25T12:36:01.030Z,0.40
2022-08-25T12:38:51.868Z,0.40
2022-08-25T12:41:30.889Z,0.40
2022-08-25T12:44:42.171Z,0.40
2022-08-25T12:47:24.739Z,0.53
2022-08-25T12:49:52.052Z,0.50
2022-08-25T12:52:28.137Z,0.40
2022-08-25T12:54:59.630Z,0.50
2022-08-25T12:57:50.807Z,0.50
2022-08-25T13:03:01.897Z,0.50
2022-08-25T13:05:55.385Z,0.50
2022-08-25T13:08:39.525Z,0.30
2022-08-25T13:11:13.650Z,0.50
2022-08-25T13:14:00.878Z,0.40
2022-08-25T13:16:30.208Z,0.40
2022-08-25T13:19:01.665Z,0.32
2022-08-25T13:21:37.094Z,0.50
2022-08-25T13:24:14.691Z,0.50
2022-08-25T13:26:48.013Z,0.47
2022-08-25T13:29:20.986Z,0.20
2022-08-25T13:32:09.312Z,0.40
2022-08-25T13:34:42.879Z,0.55
2022-08-25T13:37:30.435Z,0.40
2022-08-25T13:40:24.516Z,0.30
2022-08-25T13:42:59.311Z,0.43
2022-08-25T13:45:31.947Z,0.40
2022-08-25T13:47:59.513Z,0.40
2022-08-25T13:50:26.892Z,0.47
2022-08-25T13:53:00.386Z,0.50
2022-08-25T13:55:51.130Z,0.40
2022-08-25T13:58:39.444Z,0.35
2022-08-25T14:01:48.208Z,0.45
2022-08-25T14:04:33.255Z,0.50
2022-08-25T14:07:09.387Z,0.32
2022-08-25T14:09:45.629Z,0.40
2022-08-25T14:15:17.600Z,0.32
2022-08-25T14:18:15.341Z,0.40
2022-08-25T14:20:50.830Z,0.40
2022-08-25T14:23:27.458Z,0.50
2022-08-25T14:25:58.332Z,0.40
2022-08-25T14:28:31.977Z,0.30
2022-08-25T14:31:09.121Z,0.57
2022-08-25T14:33:51.794Z,0.50
2022-08-25T14:36:20.960Z,0.50
2022-08-25T14:38:54.451Z,0.40
2022-08-25T14:41:24.037Z,0.30
2022-08-25T14:43:51.341Z,0.40
2022-08-25T14:46:27.728Z,0.35
2022-08-25T14:49:07.054Z,0.40
2022-08-25T14:51:36.167Z,0.35
2022-08-25T14:54:07.357Z,0.30
2022-08-25T14:56:36.431Z,0.30
2022-08-25T14:59:04.807Z,0.40
2022-08-25T15:01:34.837Z,0.30
2022-08-25T15:04:27.636Z,0.35
2022-08-25T15:06:58.739Z,0.50
2022-08-25T15:09:26.437Z,0.80
2022-08-25T15:12:00.373Z,0.90
2022-08-25T15:14:28.609Z,0.73
2022-08-25T15:17:01.014Z,0.90
2022-08-25T15:19:31.366Z,0.90
2022-08-25T15:21:59.399Z,0.50
2022-08-25T15:24:28.280Z,0.43
2022-08-25T15:26:58.773Z,0.68
2022-08-25T15:29:29.838Z,0.40
2022-08-25T15:32:01.409Z,0.40
2022-08-25T15:34:31.985Z,0.50
2022-08-25T15:37:00.493Z,0.50
2022-08-25T15:39:27.939Z,0.40
2022-08-25T15:41:59.472Z,0.30
2022-08-25T15:44:29.633Z,0.40
2022-08-25T15:46:58.578Z,0.30
2022-08-25T15:49:26.143Z,0.32
2022-08-25T15:51:56.955Z,0.50
2022-08-25T15:54:26.687Z,0.30
2022-08-25T15:56:55.409Z,0.50
2022-08-25T15:59:22.574Z,0.35
2022-08-25T16:01:55.649Z,0.30
2022-08-25T16:06:50.807Z,0.40
2022-08-25T16:09:18.609Z,0.30
2022-08-25T16:11:55.784Z,0.30
2022-08-25T16:14:24.424Z,0.40
2022-08-25T16:16:52.596Z,0.40
2022-08-25T16:19:19.674Z,0.40
2022-08-25T16:21:47.333Z,0.30
2022-08-25T16:24:15.073Z,0.40
2022-08-25T16:26:49.503Z,0.32
2022-08-25T16:29:17.703Z,0.30
2022-08-25T16:31:53.080Z,0.30
2022-08-25T16:34:20.900Z,0.30
2022-08-25T16:36:47.834Z,0.25
2022-08-25T16:39:22.208Z,0.35
2022-08-25T16:41:52.457Z,0.40
2022-08-25T16:44:22.983Z,0.40
2022-08-25T16:49:24.550Z,0.40
2022-08-25T16:51:57.007Z,0.40
2022-08-25T16:54:45.043Z,0.50
2022-08-25T16:57:13.554Z,0.55
2022-08-25T16:59:42.464Z,0.40
2022-08-25T17:02:10.956Z,0.28
2022-08-25T17:04:38.053Z,0.30
2022-08-25T17:07:05.212Z,0.38
2022-08-25T17:09:32.643Z,0.50
2022-08-25T17:11:59.845Z,0.40
2022-08-25T17:14:26.976Z,0.40
2022-08-25T17:16:57.244Z,0.40
2022-08-25T17:19:28.036Z,0.50
2022-08-25T17:21:55.187Z,0.40
2022-08-25T17:24:29.503Z,0.38
2022-08-25T17:26:58.708Z,0.50
2022-08-25T17:29:25.938Z,0.50
2022-08-25T17:31:53.543Z,0.30
2022-08-25T17:34:22.459Z,0.35
2022-08-25T17:36:51.160Z,0.30
2022-08-25T17:39:22.124Z,0.30
2022-08-25T17:44:16.921Z,0.40
2022-08-25T17:46:47.438Z,0.38
2022-08-25T17:49:15.733Z,0.40
2022-08-25T17:51:43.133Z,0.30
2022-08-25T17:54:10.925Z,0.30
2022-08-25T17:56:38.230Z,0.43
2022-08-25T17:59:06.815Z,0.45
2022-08-25T18:01:40.143Z,0.30
2022-08-25T18:04:16.951Z,0.30
2022-08-25T18:06:46.209Z,0.40
2022-08-25T18:09:13.905Z,0.40
2022-08-25T18:11:41.042Z,0.30
2022-08-25T18:14:08.021Z,0.35
2022-08-25T18:16:38.945Z,0.50
2022-08-25T18:19:10.832Z,0.40
2022-08-25T18:21:39.208Z,0.30
2022-08-25T18:24:07.287Z,0.30
2022-08-25T18:26:35.797Z,0.55
2022-08-25T18:29:03.837Z,0.43
2022-08-25T18:31:31.133Z,0.32
2022-08-25T18:33:59.400Z,0.40
2022-08-25T18:36:29.172Z,0.40
2022-08-25T18:39:16.594Z,0.45
2022-08-25T18:41:46.957Z,0.40
2022-08-25T18:44:15.638Z,0.40
2022-08-25T18:46:43.403Z,0.40
2022-08-25T18:49:15.909Z,0.45
2022-08-25T18:51:44.840Z,0.40
2022-08-25T18:54:23.212Z,0.40
2022-08-25T18:56:55.997Z,0.40
2022-08-25T18:59:24.099Z,0.50
2022-08-25T19:01:53.731Z,0.50
2022-08-25T19:04:31.223Z,0.50
2022-08-25T19:06:59.943Z,0.50
2022-08-25T19:09:26.950Z,0.70
2022-08-25T19:11:55.917Z,0.50
2022-08-25T19:14:23.521Z,0.70
2022-08-25T19:16:54.407Z,0.80
2022-08-25T19:19:21.486Z,0.60
2022-08-25T19:21:51.034Z,0.70
2022-08-25T19:24:18.439Z,1.10
2022-08-25T19:26:45.949Z,0.70
2022-08-25T19:29:17.597Z,0.70
2022-08-25T19:31:47.468Z,0.70
2022-08-25T19:34:18.779Z,0.75
2022-08-25T19:36:47.659Z,0.77
2022-08-25T19:39:16.420Z,0.70
2022-08-25T19:41:45.028Z,0.75
2022-08-25T19:44:12.377Z,0.60
2022-08-25T19:46:41.806Z,0.80
2022-08-25T19:49:18.425Z,0.95
2022-08-25T19:51:50.549Z,0.93
2022-08-25T19:54:29.149Z,0.95
2022-08-25T19:56:57.304Z,1.00
2022-08-25T19:59:34.202Z,0.60
2022-08-25T20:02:10.014Z,0.90
2022-08-25T20:04:38.002Z,1.35
2022-08-25T20:07:12.503Z,2.13
2022-08-25T20:09:40.901Z,2.20
2022-08-25T20:12:10.578Z,1.90
2022-08-25T20:14:38.427Z,2.38
2022-08-25T20:17:23.987Z,3.53
2022-08-25T20:19:55.743Z,3.03
2022-08-25T20:22:26.310Z,2.50
2022-08-25T20:24:58.673Z,3.05
2022-08-25T20:29:55.893Z,3.42
2022-08-25T20:32:26.831Z,3.50
2022-08-25T20:34:56.132Z,3.38
2022-08-25T20:37:25.796Z,2.97
2022-08-25T20:43:05.954Z,2.78
2022-08-25T20:45:37.701Z,3.20
2022-08-25T20:48:04.831Z,3.80
2022-08-25T20:50:33.663Z,5.55
2022-08-25T20:53:00.854Z,5.00
2022-08-25T20:55:29.055Z,8.02
2022-08-25T20:57:56.408Z,6.20
2022-08-25T21:00:24.854Z,6.53
2022-08-25T21:02:52.764Z,7.30
2022-08-25T21:05:20.151Z,6.43
2022-08-25T21:07:47.365Z,7.68
2022-08-25T21:10:16.192Z,8.15
2022-08-25T21:12:45.733Z,7.20
2022-08-25T21:15:13.700Z,8.65
2022-08-25T21:17:49.914Z,6.78
2022-08-25T21:20:19.642Z,8.02
2022-08-25T21:22:46.974Z,6.80
2022-08-25T21:25:17.878Z,6.22
2022-08-25T21:27:49.324Z,5.55
2022-08-25T21:30:17.607Z,6.55
2022-08-25T21:32:53.157Z,9.80
2022-08-25T21:35:30.648Z,7.45
2022-08-25T21:37:57.662Z,11.48
2022-08-25T21:40:26.914Z,9.05
2022-08-25T21:42:55.022Z,12.05
2022-08-25T21:45:22.111Z,9.80
2022-08-25T21:47:49.597Z,8.93
2022-08-25T21:50:16.991Z,10.13
2022-08-25T21:52:44.881Z,8.18
2022-08-25T21:55:16.306Z,8.30
2022-08-25T21:57:44.048Z,7.75
2022-08-25T22:00:12.420Z,8.18
2022-08-25T22:02:39.489Z,8.02
2022-08-25T22:05:09.374Z,7.47
2022-08-25T22:07:42.051Z,8.30
2022-08-25T22:10:12.785Z,6.35
2022-08-25T22:12:44.784Z,6.32
2022-08-25T22:15:13.659Z,7.72
2022-08-25T22:17:41.420Z,7.45
2022-08-25T22:20:09.659Z,5.90
2022-08-25T22:22:36.659Z,7.32
2022-08-25T22:25:04.293Z,5.75
2022-08-25T22:27:32.933Z,6.75
2022-08-25T22:30:01.128Z,7.30
2022-08-25T22:32:29.005Z,9.65
2022-08-25T22:34:55.969Z,8.23
2022-08-25T22:37:22.938Z,10.05
2022-08-25T22:39:50.263Z,8.85
2022-08-25T22:42:18.492Z,8.85
2022-08-25T22:44:45.505Z,9.25
2022-08-25T22:47:12.568Z,7.60
2022-08-25T22:49:40.170Z,7.97
2022-08-25T22:52:07.675Z,8.27
2022-08-25T22:54:38.826Z,7.60
2022-08-25T22:57:07.058Z,6.47
2022-08-25T22:59:34.341Z,9.07
2022-08-25T23:02:01.610Z,8.68
2022-08-25T23:04:28.779Z,9.43
2022-08-25T23:06:55.810Z,7.93
2022-08-25T23:09:24.851Z,9.15
2022-08-25T23:11:52.112Z,7.82
2022-08-25T23:14:19.312Z,7.32
2022-08-25T23:16:46.806Z,9.00
2022-08-25T23:19:14.691Z,8.23
2022-08-25T23:22:06.578Z,7.95
2022-08-25T23:24:33.887Z,6.97
2022-08-25T23:27:03.781Z,6.70
2022-08-25T23:29:33.167Z,6.57
2022-08-25T23:32:00.887Z,8.05
2022-08-25T23:34:28.476Z,7.78
2022-08-25T23:36:56.397Z,8.25
2022-08-25T23:39:23.540Z,7.38
2022-08-25T23:41:51.747Z,8.43
2022-08-25T23:44:20.198Z,7.43
2022-08-25T23:46:48.084Z,6.57
2022-08-25T23:49:18.904Z,8.60
2022-08-25T23:51:48.131Z,7.05
2022-08-25T23:54:20.132Z,6.32
2022-08-25T23:59:24.322Z,6.67
